Time;durP1;ratioP1;P1;durP2;ratioP2;P2;SDS_P1;SDS_P2;PMS_P1;PMS_P2;Temp;Humidity;BMP_temperature;BMP_pressure;BME280_temperature;BME280_humidity;BME280_pressure;Samples;Min_cycle;Max_cycle;Signal;HPM_P1;HPM_P2
2023/07/04 00:01:30;;;;;;;10.07;2.00;;;;;;;12.68;100.00;101489.78;4975008;28;20840;-73
2023/07/04 00:03:57;;;;;;;9.53;1.97;;;;;;;12.21;100.00;101407.91;4973146;28;20255;-73
2023/07/04 00:06:27;;;;;;;7.50;1.90;;;;;;;13.26;100.00;101583.78;4974963;28;20194;-73
2023/07/04 00:08:53;;;;;;;9.97;1.60;;;;;;;12.58;100.00;101506.28;4983075;28;20453;-72
2023/07/04 00:11:20;;;;;;;10.03;1.90;;;;;;;12.25;100.00;101408.34;4982255;28;20439;-73
2023/07/04 00:13:47;;;;;;;10.87;1.90;;;;;;;13.48;100.00;101598.00;4975729;28;20212;-73
2023/07/04 00:16:14;;;;;;;6.20;1.97;;;;;;;12.53;100.00;101491.75;4977659;28;20495;-73
2023/07/04 00:18:41;;;;;;;10.13;2.30;;;;;;;13.24;100.00;101572.34;4977488;28;20501;-74
2023/07/04 00:21:13;;;;;;;8.07;1.87;;;;;;;12.52;100.00;101460.47;4993436;28;20486;-73
2023/07/04 00:23:42;;;;;;;6.17;1.87;;;;;;;13.29;100.00;101589.63;4992736;28;20434;-74
2023/07/04 00:26:08;;;;;;;13.00;2.20;;;;;;;12.52;100.00;101482.00;4980558;28;20512;-73
2023/07/04 00:28:38;;;;;;;7.97;1.57;;;;;;;12.81;100.00;101527.53;4978715;28;20457;-72
2023/07/04 00:31:04;;;;;;;7.00;2.00;;;;;;;12.50;100.00;101452.59;4978307;28;20453;-73
2023/07/04 00:33:30;;;;;;;5.53;1.63;;;;;;;12.94;100.00;101534.88;4976626;28;20476;-72
2023/07/04 00:36:01;;;;;;;7.90;2.07;;;;;;;13.27;100.00;101578.19;4984547;28;20445;-73
2023/07/04 00:38:27;;;;;;;7.63;1.77;;;;;;;11.83;100.00;101346.38;4990634;28;20514;-72
2023/07/04 00:40:54;;;;;;;5.20;1.57;;;;;;;12.69;100.00;101507.56;4976886;28;20948;-73
2023/07/04 00:43:22;;;;;;;6.40;1.77;;;;;;;12.66;100.00;101481.88;4993792;28;20440;-73
2023/07/04 00:45:55;;;;;;;6.80;1.43;;;;;;;13.42;100.00;101615.78;4975850;28;20477;-72
2023/07/04 00:48:23;;;;;;;2.97;1.50;;;;;;;13.31;100.00;101636.06;4972506;28;20528;-73
2023/07/04 00:50:50;;;;;;;8.60;1.67;;;;;;;12.63;100.00;101497.59;4975884;28;20466;-73
2023/07/04 00:53:16;;;;;;;6.33;1.50;;;;;;;13.33;100.00;101646.63;4975765;28;20468;-73
2023/07/04 00:55:46;;;;;;;8.33;1.67;;;;;;;13.28;100.00;101660.72;4976775;28;20436;-73
2023/07/04 00:58:12;;;;;;;5.50;1.30;;;;;;;13.18;100.00;101657.47;4980997;28;20205;-72
2023/07/04 01:00:38;;;;;;;7.50;1.83;;;;;;;12.17;100.00;101508.81;4988194;28;20474;-72
2023/07/04 01:03:05;;;;;;;6.43;1.70;;;;;;;12.59;100.00;101528.63;4977057;28;20464;-73
2023/07/04 01:05:43;;;;;;;7.37;1.50;;;;;;;13.28;100.00;101654.50;4974640;28;20225;-73
2023/07/04 01:08:24;;;;;;;5.50;1.73;;;;;;;13.27;100.00;101667.09;4983470;28;20461;-72
2023/07/04 01:10:51;;;;;;;5.87;1.60;;;;;;;12.92;100.00;101592.66;4989185;28;20445;-73
2023/07/04 01:13:29;;;;;;;5.40;1.37;;;;;;;13.13;100.00;101654.53;4977504;28;20560;-73
2023/07/04 01:15:54;;;;;;;9.90;2.37;;;;;;;13.10;100.00;101638.75;4977527;28;20540;-73
2023/07/04 01:18:23;;;;;;;4.50;1.73;;;;;;;12.91;100.00;101617.91;4976547;28;20548;-73
2023/07/04 01:20:49;;;;;;;9.23;2.17;;;;;;;12.16;100.00;101482.94;4990298;28;20221;-73
2023/07/04 01:23:38;;;;;;;11.60;2.07;;;;;;;13.03;100.00;101635.19;4977960;28;20518;-73
2023/07/04 01:26:31;;;;;;;7.70;2.27;;;;;;;13.07;100.00;101628.38;4968817;28;20461;-73
2023/07/04 01:28:59;;;;;;;7.30;1.90;;;;;;;13.17;100.00;101644.22;4971956;28;20469;-72
2023/07/04 01:31:27;;;;;;;3.37;1.20;;;;;;;12.39;100.00;101540.06;4970789;28;21256;-72
2023/07/04 01:33:54;;;;;;;7.47;1.63;;;;;;;12.14;100.00;101483.13;4972779;28;20504;-73
2023/07/04 01:36:24;;;;;;;7.90;1.90;;;;;;;12.81;100.00;101596.69;4971655;28;20438;-72
2023/07/04 01:38:50;;;;;;;6.90;1.97;;;;;;;13.16;100.00;101648.75;4970001;28;20473;-72
2023/07/04 01:41:16;;;;;;;6.03;1.30;;;;;;;13.01;100.00;101618.41;4973271;28;22265;-72
2023/07/04 01:43:52;;;;;;;7.10;1.70;;;;;;;13.10;100.00;101638.75;4973063;28;20475;-72
2023/07/04 01:46:18;;;;;;;7.00;1.27;;;;;;;13.07;100.00;101626.50;4969370;28;20209;-72
2023/07/04 01:48:44;;;;;;;6.10;1.50;;;;;;;12.94;100.00;101631.00;4972464;28;20564;-72
2023/07/04 01:51:10;;;;;;;8.30;2.17;;;;;;;12.58;100.00;101552.03;4970108;28;21051;-72
2023/07/04 01:53:35;;;;;;;10.40;2.03;;;;;;;11.75;100.00;101403.75;4969807;28;20487;-72
2023/07/04 01:56:01;;;;;;;5.60;1.70;;;;;;;12.12;100.00;101444.00;4969903;28;20614;-72
2023/07/04 01:58:26;;;;;;;7.00;2.27;;;;;;;12.69;100.00;101531.81;4969009;28;20236;-72
2023/07/04 02:00:51;;;;;;;5.27;1.40;;;;;;;12.18;100.00;101456.72;4971077;28;20657;-72
2023/07/04 02:03:17;;;;;;;10.27;1.77;;;;;;;12.54;100.00;101514.91;4970547;28;20185;-72
2023/07/04 02:05:42;;;;;;;5.63;1.30;;;;;;;12.37;100.00;101457.88;4970799;28;20192;-72
2023/07/04 02:08:08;;;;;;;10.40;2.50;;;;;;;12.57;100.00;101487.63;4971393;28;20213;-72
2023/07/04 02:10:34;;;;;;;11.57;1.97;;;;;;;12.51;100.00;101509.94;4969580;28;20185;-72
2023/07/04 02:13:00;;;;;;;11.47;2.30;;;;;;;12.88;100.00;101581.44;4969085;28;20969;-72
2023/07/04 02:15:26;;;;;;;10.33;2.00;;;;;;;11.57;100.00;101363.09;4970051;28;20321;-72
2023/07/04 02:17:51;;;;;;;5.13;1.47;;;;;;;12.33;100.00;101478.13;4985597;28;20217;-72
2023/07/04 02:20:17;;;;;;;8.47;2.03;;;;;;;12.82;100.00;101561.53;4971357;28;20446;-72
2023/07/04 02:22:43;;;;;;;10.10;2.00;;;;;;;12.12;100.00;101463.69;4972313;28;20544;-72
2023/07/04 02:25:09;;;;;;;8.00;1.47;;;;;;;12.09;100.00;101457.84;4971376;28;20190;-72
2023/07/04 02:27:35;;;;;;;11.13;2.23;;;;;;;12.85;100.00;101571.06;4973037;28;20469;-72
2023/07/04 02:30:00;;;;;;;10.67;2.27;;;;;;;11.96;100.00;101416.38;4973064;28;20822;-72
2023/07/04 02:32:26;;;;;;;24.97;2.37;;;;;;;11.40;100.00;101342.84;4972204;28;20206;-72
2023/07/04 02:34:51;;;;;;;6.47;1.53;;;;;;;12.67;100.00;101568.88;4990439;28;20206;-73
2023/07/04 02:37:17;;;;;;;6.33;1.80;;;;;;;11.66;100.00;101398.72;4974730;28;20201;-73
2023/07/04 02:39:43;;;;;;;7.37;1.63;;;;;;;12.72;100.00;101566.41;4972391;28;20673;-72
2023/07/04 02:42:08;;;;;;;8.83;1.93;;;;;;;12.69;100.00;101553.34;4976635;28;20428;-72
2023/07/04 02:44:34;;;;;;;10.83;1.90;;;;;;;13.12;100.00;101585.53;4974842;28;20990;-72
2023/07/04 02:46:59;;;;;;;8.97;1.90;;;;;;;12.56;100.00;101508.31;4971191;28;20201;-73
2023/07/04 02:49:25;;;;;;;8.83;1.77;;;;;;;12.26;100.00;101493.38;4972310;28;20210;-73
2023/07/04 02:51:50;;;;;;;5.83;1.60;;;;;;;13.15;100.00;101630.94;4971364;28;20194;-72
2023/07/04 02:54:16;;;;;;;5.10;1.70;;;;;;;13.03;100.00;101630.66;4972135;28;20186;-72
2023/07/04 02:56:42;;;;;;;4.00;1.47;;;;;;;12.94;100.00;101629.13;4973186;28;20283;-72
2023/07/04 02:59:07;;;;;;;5.50;1.60;;;;;;;12.01;100.00;101477.66;4974847;28;21855;-73
2023/07/04 03:01:33;;;;;;;10.00;1.40;;;;;;;13.08;100.00;101636.28;4975438;28;20484;-72
2023/07/04 03:03:58;;;;;;;5.30;1.90;;;;;;;12.24;100.00;101541.13;4973291;28;20324;-72
2023/07/04 03:06:24;;;;;;;5.83;1.60;;;;;;;12.76;100.00;101593.78;4987679;28;20190;-72
2023/07/04 03:08:49;;;;;;;3.60;1.50;;;;;;;12.73;100.00;101583.38;4971110;28;20790;-72
2023/07/04 03:11:15;;;;;;;7.87;1.60;;;;;;;12.33;100.00;101526.56;4969415;28;20194;-72
2023/07/04 03:13:40;;;;;;;9.57;2.40;;;;;;;11.64;100.00;101431.16;4971747;28;20685;-72
2023/07/04 03:16:06;;;;;;;8.33;1.47;;;;;;;12.29;100.00;101491.13;4969892;28;20189;-72
2023/07/04 03:18:33;;;;;;;14.03;2.10;;;;;;;12.46;100.00;101585.03;4972077;28;20208;-72
2023/07/04 03:20:58;;;;;;;7.67;1.70;;;;;;;11.24;100.00;101394.97;4971643;28;20201;-72
2023/07/04 03:23:23;;;;;;;12.10;1.60;;;;;;;12.48;100.00;101558.75;4969961;28;20440;-72
2023/07/04 03:25:49;;;;;;;5.13;1.70;;;;;;;12.33;100.00;101540.00;4974150;28;20205;-72
2023/07/04 03:28:14;;;;;;;6.20;2.03;;;;;;;12.54;100.00;101563.38;4973551;28;20230;-73
2023/07/04 03:30:40;;;;;;;6.40;2.13;;;;;;;12.04;100.00;101468.38;4973489;28;20186;-72
2023/07/04 03:33:05;;;;;;;9.73;2.10;;;;;;;12.40;100.00;101528.25;4974710;28;23150;-73
2023/07/04 03:35:31;;;;;;;5.87;1.73;;;;;;;12.04;100.00;101485.34;4972580;28;20190;-73
2023/07/04 03:37:56;;;;;;;11.53;1.90;;;;;;;12.01;100.00;101483.03;4971864;28;20217;-73
2023/07/04 03:40:22;;;;;;;15.00;1.83;;;;;;;12.46;100.00;101558.13;4972743;28;20201;-72
2023/07/04 03:42:47;;;;;;;9.30;1.90;;;;;;;12.41;100.00;101527.25;4975527;28;20233;-73
2023/07/04 03:45:13;;;;;;;8.00;2.43;;;;;;;12.45;100.00;101535.75;4972080;28;20693;-73
2023/07/04 03:47:39;;;;;;;9.47;1.77;;;;;;;12.38;100.00;101511.50;4972820;28;20214;-73
2023/07/04 03:50:06;;;;;;;7.77;1.80;;;;;;;12.70;100.00;101573.84;4971713;28;20191;-74
2023/07/04 03:52:32;;;;;;;8.17;1.90;;;;;;;12.70;100.00;101571.16;4978556;28;20473;-73
2023/07/04 03:54:57;;;;;;;6.27;1.90;;;;;;;12.73;100.00;101543.00;4974296;28;20459;-74
2023/07/04 03:57:23;;;;;;;7.60;2.20;;;;;;;12.77;100.00;101565.81;4974036;28;20232;-74
2023/07/04 03:59:48;;;;;;;7.33;1.73;;;;;;;11.62;100.00;101414.38;4975181;28;20198;-73
2023/07/04 04:02:13;;;;;;;9.30;2.37;;;;;;;11.83;100.00;101420.78;4972649;28;20193;-73
2023/07/04 04:04:42;;;;;;;9.07;2.80;;;;;;;12.82;100.00;101556.13;4975793;28;20644;-73
2023/07/04 04:07:09;;;;;;;13.17;2.40;;;;;;;12.70;100.00;101535.31;4981006;28;20537;-74
2023/07/04 04:09:35;;;;;;;13.67;3.60;;;;;;;11.75;100.00;101368.81;4981880;28;20469;-74
2023/07/04 04:12:01;;;;;;;8.90;2.80;;;;;;;12.88;100.00;101551.81;4977958;28;20995;-73
2023/07/04 04:14:28;;;;;;;10.97;2.90;;;;;;;12.21;100.00;101426.72;4982916;28;20520;-73
2023/07/04 04:16:54;;;;;;;11.10;3.40;;;;;;;12.10;100.00;101416.50;4983415;28;20197;-73
2023/07/04 04:19:19;;;;;;;8.67;2.00;;;;;;;12.73;100.00;101522.31;4974415;28;20454;-74
2023/07/04 04:21:44;;;;;;;10.60;2.70;;;;;;;12.94;100.00;101534.88;4974027;28;20204;-73
2023/07/04 04:24:10;;;;;;;7.27;2.57;;;;;;;12.99;100.00;101558.50;4973076;28;20205;-73
2023/07/04 04:26:38;;;;;;;9.43;3.03;;;;;;;12.97;100.00;101547.94;4975715;28;20665;-73
2023/07/04 04:29:07;;;;;;;6.10;2.63;;;;;;;12.93;100.00;101548.53;4983179;28;20675;-73
2023/07/04 04:31:38;;;;;;;8.60;3.00;;;;;;;12.11;100.00;101423.53;4977937;28;20503;-74
2023/07/04 04:34:04;;;;;;;10.20;2.80;;;;;;;12.30;100.00;101440.88;4985324;28;20548;-73
2023/07/04 04:36:30;;;;;;;12.37;3.00;;;;;;;12.94;100.00;101564.50;4979214;28;20965;-73
2023/07/04 04:38:56;;;;;;;11.83;3.23;;;;;;;12.30;100.00;101481.22;4974368;28;20445;-73
2023/07/04 04:41:22;;;;;;;7.47;2.30;;;;;;;12.84;100.00;101519.09;4977279;28;21087;-74
2023/07/04 04:43:49;;;;;;;15.20;2.93;;;;;;;11.59;100.00;101346.75;4977120;28;20517;-73
2023/07/04 04:46:15;;;;;;;10.13;2.70;;;;;;;12.82;100.00;101539.16;4975453;28;20216;-74
2023/07/04 04:48:41;;;;;;;10.03;2.67;;;;;;;13.18;100.00;101586.59;4977742;28;21040;-74
2023/07/04 04:51:09;;;;;;;10.33;2.30;;;;;;;12.49;100.00;101472.44;4977183;28;20449;-74
2023/07/04 04:53:36;;;;;;;7.33;2.27;;;;;;;13.20;100.00;101617.72;4974761;28;20209;-74
2023/07/04 04:56:03;;;;;;;7.80;2.30;;;;;;;11.72;100.00;101395.25;4989501;28;20543;-74
2023/07/04 04:58:29;;;;;;;5.43;2.17;;;;;;;12.33;100.00;101489.72;4989391;28;20595;-74
2023/07/04 05:00:54;;;;;;;7.30;2.00;;;;;;;12.09;100.00;101418.38;4973001;28;20539;-74
2023/07/04 05:03:19;;;;;;;9.50;1.70;;;;;;;12.67;100.00;101563.47;4976130;28;20208;-74
2023/07/04 05:05:45;;;;;;;4.67;2.13;;;;;;;12.01;100.00;101472.28;4977372;28;20197;-74
2023/07/04 05:08:10;;;;;;;6.50;1.70;;;;;;;13.25;100.00;101689.84;4974243;28;20202;-74
2023/07/04 05:10:36;;;;;;;6.60;2.17;;;;;;;12.32;100.00;101568.75;4975279;28;20190;-74
2023/07/04 05:13:01;;;;;;;8.80;2.40;;;;;;;13.46;100.00;101745.59;4990028;28;20214;-74
2023/07/04 05:15:27;;;;;;;8.30;2.20;;;;;;;13.43;100.00;101738.75;4969112;28;20245;-75
2023/07/04 05:17:52;;;;;;;5.80;1.97;;;;;;;13.11;100.00;101705.09;4969246;28;20214;-74
2023/07/04 05:20:23;;;;;;;8.40;2.00;;;;;;;13.05;100.00;101716.66;4986237;28;20197;-74
2023/07/04 05:22:49;;;;;;;7.23;2.10;;;;;;;12.85;100.00;101668.81;4988584;28;20639;-74
2023/07/04 05:25:15;;;;;;;7.10;2.20;;;;;;;12.37;100.00;101628.19;4987966;28;20443;-74
2023/07/04 05:27:41;;;;;;;3.07;1.30;;;;;;;13.64;100.00;101807.94;4972470;28;20461;-74
2023/07/04 05:30:08;;;;;;;5.40;2.10;;;;;;;12.84;100.00;101699.47;4968060;28;20186;-74
2023/07/04 05:32:34;;;;;;;8.40;1.77;;;;;;;12.74;100.00;101681.97;4986506;28;20487;-74
2023/07/04 05:34:59;;;;;;;8.40;2.07;;;;;;;12.11;100.00;101598.31;4972367;28;20800;-75
2023/07/04 05:37:25;;;;;;;6.37;1.70;;;;;;;13.01;100.00;101701.88;4977197;28;20194;-74
2023/07/04 05:39:51;;;;;;;13.53;2.53;;;;;;;12.70;100.00;101653.75;4974287;28;20667;-75
2023/07/04 05:42:16;;;;;;;7.27;2.93;;;;;;;12.70;100.00;101606.16;4972277;28;20182;-74
2023/07/04 05:44:42;;;;;;;5.47;2.33;;;;;;;13.61;100.00;101721.25;4973008;28;20197;-73
2023/07/04 05:47:07;;;;;;;12.17;2.70;;;;;;;13.90;100.00;101768.72;4973142;28;20874;-74
2023/07/04 05:49:33;;;;;;;5.97;2.70;;;;;;;13.19;100.00;101609.81;4972920;28;20221;-74
2023/07/04 05:51:58;;;;;;;10.30;3.23;;;;;;;13.04;100.00;101585.69;4973091;28;20200;-73
2023/07/04 05:54:24;;;;;;;7.20;2.63;;;;;;;13.76;100.00;101693.13;4988271;28;20220;-75
2023/07/04 05:56:55;;;;;;;10.83;3.20;;;;;;;12.61;100.00;101518.47;4975539;28;20196;-74
2023/07/04 05:59:21;;;;;;;9.90;3.57;;;;;;;12.74;100.00;101488.16;4983620;28;20209;-74
2023/07/04 06:01:47;;;;;;;8.10;3.60;;;;;;;13.87;100.00;101689.03;4973571;28;20449;-74
2023/07/04 06:04:12;;;;;;;10.10;3.60;;;;;;;13.05;100.00;101534.34;4973471;28;20192;-75
2023/07/04 06:06:40;;;;;;;20.33;4.47;;;;;;;13.02;100.00;101517.75;4990299;28;20456;-74
2023/07/04 06:09:13;;;;;;;9.73;3.87;;;;;;;13.18;100.00;101549.72;4978454;28;20213;-73
2023/07/04 06:11:45;;;;;;;10.70;3.50;;;;;;;13.16;100.00;101534.78;4975507;28;20426;-74
2023/07/04 06:14:18;;;;;;;6.63;3.00;;;;;;;13.80;100.00;101669.31;4976733;28;20988;-72
2023/07/04 06:16:43;;;;;;;8.07;3.37;;;;;;;13.42;100.00;101604.19;4972722;28;20444;-74
2023/07/04 06:19:09;;;;;;;5.73;3.27;;;;;;;13.43;100.00;101660.59;4974889;28;20483;-75
2023/07/04 06:21:35;;;;;;;9.30;3.10;;;;;;;13.94;100.00;101714.19;4974915;28;20189;-74
2023/07/04 06:24:00;;;;;;;9.33;2.57;;;;;;;13.54;100.00;101634.97;4973611;28;20178;-74
2023/07/04 06:26:30;;;;;;;8.70;3.23;;;;;;;13.46;100.00;101644.03;4970671;28;20198;-73
2023/07/04 06:28:55;;;;;;;11.70;3.33;;;;;;;14.14;100.00;101743.94;4971155;28;20202;-75
2023/07/04 06:31:21;;;;;;;10.30;3.17;;;;;;;14.26;100.00;101741.50;4973401;28;20473;-75
2023/07/04 06:33:46;;;;;;;8.87;3.63;;;;;;;13.47;100.00;101594.47;4974625;28;20209;-75
2023/07/04 06:36:16;;;;;;;9.10;2.87;;;;;;;13.76;100.00;101649.16;4988679;28;20221;-76
2023/07/04 06:38:42;;;;;;;10.43;2.90;;;;;;;14.37;100.00;101742.78;4972355;28;20216;-74
2023/07/04 06:41:13;;;;;;;13.90;3.27;;;;;;;14.17;100.00;101699.53;4973580;28;20450;-74
2023/07/04 06:43:43;;;;;;;8.93;3.20;;;;;;;14.36;100.00;101716.84;4974832;28;21004;-75
2023/07/04 06:46:13;;;;;;;8.57;2.50;;;;;;;12.98;100.00;101529.94;4970784;28;20473;-74
2023/07/04 06:48:39;;;;;;;7.20;2.47;;;;;;;14.40;100.00;101737.00;4970886;28;20465;-74
2023/07/04 06:51:08;;;;;;;9.23;3.20;;;;;;;14.05;100.00;101658.81;4971211;28;20503;-72
2023/07/04 06:53:34;;;;;;;7.73;2.37;;;;;;;14.39;100.00;101738.03;4974634;28;20875;-72
2023/07/04 06:56:08;;;;;;;11.83;3.30;;;;;;;13.89;100.00;101632.22;4975707;28;20475;-73
2023/07/04 06:58:36;;;;;;;9.30;2.10;;;;;;;14.71;100.00;101777.00;4976200;28;20464;-72
2023/07/04 07:01:02;;;;;;;9.97;2.57;;;;;;;13.78;100.00;101680.28;4975940;28;20522;-72
2023/07/04 07:03:29;;;;;;;8.50;2.27;;;;;;;13.68;100.00;101670.88;4968652;28;20643;-72
2023/07/04 07:05:54;;;;;;;6.97;1.90;;;;;;;13.63;100.00;101687.66;4974062;28;20871;-72
2023/07/04 07:08:20;;;;;;;4.77;2.13;;;;;;;13.76;100.00;101703.91;4970720;28;20450;-71
2023/07/04 07:10:57;;;;;;;8.10;2.23;;;;;;;14.98;100.00;101917.53;4965288;28;20186;-72
2023/07/04 07:13:23;;;;;;;8.33;2.07;;;;;;;14.50;100.00;101834.63;4962968;28;20213;-72
2023/07/04 07:15:49;;;;;;;5.80;2.27;;;;;;;15.09;100.00;101941.28;4989150;28;20447;-72
2023/07/04 07:18:15;;;;;;;5.60;1.70;;;;;;;14.29;100.00;101842.81;4971531;28;20457;-72
2023/07/04 07:20:40;;;;;;;13.70;3.47;;;;;;;15.01;100.00;101955.78;4970373;28;20692;-72
2023/07/04 07:23:06;;;;;;;10.17;2.80;;;;;;;14.28;100.00;101841.97;4975350;28;20516;-73
2023/07/04 07:25:31;;;;;;;8.60;1.93;;;;;;;15.02;100.00;101968.28;4974641;28;20713;-72
2023/07/04 07:27:57;;;;;;;9.20;2.30;;;;;;;14.38;100.00;101874.03;4970485;28;20236;-71
2023/07/04 07:30:22;;;;;;;6.27;1.70;;;;;;;14.03;100.00;101814.66;4975399;28;20187;-73
2023/07/04 07:32:47;;;;;;;8.20;1.60;;;;;;;14.51;100.00;101905.66;4975496;28;20190;-71
2023/07/04 07:35:13;;;;;;;7.50;1.87;;;;;;;13.82;100.00;101817.41;4969721;28;20193;-72
2023/07/04 07:37:38;;;;;;;5.30;1.63;;;;;;;14.35;100.00;101877.09;4968879;28;20214;-72
2023/07/04 07:40:04;;;;;;;5.77;1.77;;;;;;;15.23;100.00;102018.69;4970176;28;20221;-72
2023/07/04 07:42:31;;;;;;;5.00;1.50;;;;;;;14.33;100.00;101836.00;4973614;28;20197;-72
2023/07/04 07:44:56;;;;;;;12.63;1.60;;;;;;;15.13;100.00;101940.69;4977015;28;20542;-72
2023/07/04 07:47:22;;;;;;;7.00;1.60;;;;;;;14.26;100.00;101771.19;4982402;28;20906;-73
2023/07/04 07:49:47;;;;;;;8.20;1.87;;;;;;;13.92;100.00;101697.38;4975524;28;20248;-75
2023/07/04 07:52:13;;;;;;;7.83;1.73;;;;;;;14.39;100.00;101697.56;4973979;28;20291;-72
2023/07/04 07:54:38;;;;;;;4.83;1.67;;;;;;;14.74;100.00;101735.25;4989154;28;20312;-71
2023/07/04 07:57:04;;;;;;;5.17;1.50;;;;;;;14.45;100.00;101692.16;4986507;28;20194;-71
2023/07/04 07:59:29;;;;;;;4.13;1.60;;;;;;;15.34;100.00;101788.34;4972733;28;20218;-71
2023/07/04 08:01:56;;;;;;;6.97;1.77;;;;;;;15.09;100.00;101736.75;4969948;28;20196;-72
2023/07/04 08:04:21;;;;;;;5.27;1.53;;;;;;;15.33;100.00;101770.47;4977427;28;20229;-72
2023/07/04 08:06:47;;;;;;;6.80;1.67;;;;;;;14.77;100.00;101729.44;4967892;28;20524;-72
2023/07/04 08:09:15;;;;;;;3.77;1.30;;;;;;;15.52;100.00;101849.06;4971834;28;20205;-71
2023/07/04 08:11:43;;;;;;;7.70;1.80;;;;;;;15.42;100.00;101829.72;4991404;28;20190;-71
2023/07/04 08:14:08;;;;;;;6.13;1.57;;;;;;;13.87;100.00;101593.81;4984610;28;20973;-72
2023/07/04 08:16:51;;;;;;;6.00;2.07;;;;;;;14.00;100.00;101597.41;4976579;28;20541;-71
2023/07/04 08:19:18;;;;;;;7.13;1.20;;;;;;;14.52;100.00;101675.19;4991993;28;20280;-72
2023/07/04 08:21:45;;;;;;;9.20;1.70;;;;;;;14.85;100.00;101686.88;4975913;28;20513;-75
2023/07/04 08:24:12;;;;;;;5.60;1.60;;;;;;;14.13;100.00;101593.91;4978231;28;20426;-72
2023/07/04 08:26:40;;;;;;;10.40;2.03;;;;;;;15.67;100.00;101821.81;4974875;28;20456;-72
2023/07/04 08:29:07;;;;;;;5.00;1.80;;;;;;;15.60;100.00;101719.91;4977805;28;20941;-73
2023/07/04 08:31:33;;;;;;;3.30;1.30;;;;;;;15.73;100.00;101667.66;4972839;28;20449;-72
2023/07/04 08:33:58;;;;;;;8.83;2.03;;;;;;;15.68;100.00;101704.50;4976816;28;20860;-70
2023/07/04 08:36:24;;;;;;;6.40;1.30;;;;;;;15.89;100.00;101785.44;4975911;28;20446;-71
2023/07/04 08:38:51;;;;;;;12.00;1.80;;;;;;;15.95;100.00;101813.50;4981737;28;20872;-70
2023/07/04 08:41:39;;;;;;;8.90;1.70;;;;;;;15.55;100.00;101744.03;4977253;28;20441;-72
2023/07/04 08:44:22;;;;;;;5.23;1.60;;;;;;;15.78;100.00;101761.72;4976207;28;20437;-72
2023/07/04 08:46:50;;;;;;;7.90;1.37;;;;;;;15.79;100.00;101693.03;4977823;28;20518;-70
2023/07/04 08:49:34;;;;;;;8.43;1.50;;;;;;;15.76;100.00;101691.59;4978914;28;20467;-71
2023/07/04 08:52:37;;;;;;;4.40;1.60;;;;;;;16.01;100.00;101739.59;4995357;28;20509;-72
2023/07/04 08:55:05;;;;;;;3.20;1.40;;;;;;;16.10;100.00;101730.19;4969074;28;20448;-72
2023/07/04 08:57:55;;;;;;;4.00;1.30;;;;;;;15.42;100.00;101578.28;4973890;28;20430;-72
2023/07/04 09:00:30;;;;;;;7.70;1.50;;;;;;;15.52;100.00;101541.66;4991063;28;20444;-71
2023/07/04 09:02:55;;;;;;;7.93;1.67;;;;;;;15.80;100.00;101529.72;4975403;28;20444;-71
2023/07/04 09:05:35;;;;;;;9.73;1.50;;;;;;;16.44;100.00;101501.56;4990287;28;20934;-71
2023/07/04 09:08:28;;;;;;;5.77;1.70;;;;;;;15.75;100.00;101388.88;4979746;28;20236;-71
2023/07/04 09:10:59;;;;;;;3.93;1.10;;;;;;;15.69;100.00;101371.66;4976552;28;20512;-72
2023/07/04 09:13:29;;;;;;;3.03;1.30;;;;;;;15.90;100.00;101350.69;4990464;28;20528;-72
2023/07/04 09:16:00;;;;;;;4.80;1.67;;;;;;;16.38;100.00;101367.09;4976306;28;20421;-72
2023/07/04 09:18:49;;;;;;;3.80;1.40;;;;;;;15.98;100.00;101296.31;4975091;28;20458;-72
2023/07/04 09:21:17;;;;;;;3.33;1.10;;;;;;;15.87;100.00;101305.97;4985584;28;20465;-71
2023/07/04 09:23:44;;;;;;;5.87;1.40;;;;;;;16.82;100.00;101461.88;4975559;28;20957;-73
2023/07/04 09:26:14;;;;;;;11.13;1.70;;;;;;;15.74;100.00;101262.84;4978073;28;20529;-72
2023/07/04 09:28:43;;;;;;;5.10;1.40;;;;;;;16.68;100.00;101378.00;4976103;28;20464;-71
2023/07/04 09:31:25;;;;;;;4.10;1.30;;;;;;;16.08;100.00;101250.59;4978571;28;20441;-72
2023/07/04 09:33:52;;;;;;;6.27;1.70;;;;;;;16.82;100.00;101310.97;4977793;28;20969;-73
2023/07/04 09:36:21;;;;;;;6.60;1.23;;;;;;;16.41;100.00;101228.56;4974535;28;20445;-72
2023/07/04 09:38:51;;;;;;;6.63;1.53;;;;;;;16.79;100.00;101251.84;4985476;28;20467;-71
2023/07/04 09:41:19;;;;;;;4.83;1.10;;;;;;;16.25;100.00;101132.56;4970726;28;20445;-71
2023/07/04 09:43:44;;;;;;;4.57;1.10;;;;;;;16.64;100.00;101121.41;4973790;28;20441;-72
2023/07/04 09:46:19;;;;;;;4.60;1.57;;;;;;;17.11;100.00;101143.16;4972975;28;21001;-73
2023/07/04 09:48:46;;;;;;;4.90;1.17;;;;;;;17.26;100.00;101137.28;4972907;28;20221;-72
2023/07/04 09:51:31;;;;;;;4.30;1.30;;;;;;;15.92;100.00;101040.22;4976028;28;20467;-73
2023/07/04 09:54:16;;;;;;;5.93;2.17;;;;;;;16.52;100.00;101234.25;4977978;28;20628;-71
2023/07/04 09:56:43;;;;;;;7.07;1.70;;;;;;;16.18;100.00;101277.16;4975311;28;20441;-72
2023/07/04 09:59:11;;;;;;;3.90;1.33;;;;;;;16.01;100.00;101360.78;4971318;28;20964;-73
2023/07/04 10:01:42;;;;;;;4.03;1.63;;;;;;;15.62;100.00;101356.50;4970497;28;20460;-73
2023/07/04 10:04:09;;;;;;;8.80;1.73;;;;;;;15.72;100.00;101541.59;4972673;28;20452;-73
2023/07/04 10:06:38;;;;;;;8.50;1.80;;;;;;;15.43;100.00;101747.59;4978771;28;20818;-72
2023/07/04 10:09:17;;;;;;;4.70;1.50;;;;;;;14.27;100.00;101823.31;4972177;28;20468;-74
2023/07/04 10:11:43;;;;;;;8.37;1.87;;;;;;;14.68;100.00;102010.47;4986829;28;20433;-71
2023/07/04 10:14:12;;;;;;;8.73;1.90;;;;;;;14.95;100.00;102075.47;4974131;28;21063;-70
2023/07/04 10:16:45;;;;;;;4.90;1.57;;;;;;;15.17;100.00;102105.97;4973629;28;20268;-72
2023/07/04 10:19:12;;;;;;;5.33;1.80;;;;;;;15.06;100.00;102103.81;4971005;28;20528;-72
2023/07/04 10:21:45;;;;;;;5.00;1.60;;;;;;;13.83;100.00;101854.13;4974761;28;20452;-73
2023/07/04 10:24:17;;;;;;;5.87;1.67;;;;;;;14.60;100.00;101972.81;4973539;28;20454;-73
2023/07/04 10:26:45;;;;;;;6.93;2.20;;;;;;;14.01;100.00;101795.97;4975899;28;21424;-73
2023/07/04 10:29:11;;;;;;;8.37;2.30;;;;;;;15.74;100.00;102087.78;4975610;28;20971;-72
2023/07/04 10:31:37;;;;;;;5.90;1.90;;;;;;;14.76;100.00;101889.84;4973803;28;20556;-73
2023/07/04 10:34:07;;;;;;;8.00;2.13;;;;;;;16.15;100.00;102048.97;4976358;28;21044;-72
2023/07/04 10:36:36;;;;;;;6.73;1.87;;;;;;;15.65;100.00;101991.56;4977256;28;21443;-72
2023/07/04 10:39:07;;;;;;;5.37;1.60;;;;;;;15.26;100.00;101926.38;4974551;28;21186;-72
2023/07/04 10:41:48;;;;;;;8.63;2.20;;;;;;;15.85;100.00;101992.47;4973440;28;20508;-72
2023/07/04 10:44:19;;;;;;;7.63;2.10;;;;;;;15.73;100.00;101970.59;4969275;28;20491;-72
2023/07/04 10:47:17;;;;;;;10.43;2.17;;;;;;;15.93;100.00;102013.09;4971226;28;22280;-72
2023/07/04 10:49:54;;;;;;;8.50;2.03;;;;;;;15.93;100.00;102005.81;4964640;28;20555;-73
2023/07/04 10:52:32;;;;;;;6.93;2.10;;;;;;;14.75;100.00;101774.72;4971660;28;20488;-73
2023/07/04 10:54:58;;;;;;;6.77;2.33;;;;;;;16.11;100.00;101940.25;4973044;28;20532;-72
2023/07/04 10:57:32;;;;;;;8.80;2.20;;;;;;;16.43;100.00;101926.88;4972841;28;20440;-73
2023/07/04 11:00:20;;;;;;;6.23;2.10;;;;;;;16.22;100.00;101820.50;4971932;28;20474;-73
2023/07/04 11:02:52;;;;;;;9.87;2.20;;;;;;;16.88;100.00;101838.41;4973931;28;20449;-72
2023/07/04 11:05:33;;;;;;;8.03;1.63;;;;;;;16.72;100.00;101722.38;4970331;28;20810;-75
2023/07/04 11:08:00;;;;;;;6.67;1.93;;;;;;;16.16;100.00;101548.00;4969975;28;20465;-73
2023/07/04 11:10:39;;;;;;;13.80;2.10;;;;;;;17.33;100.00;101559.06;4970538;28;20445;-73
2023/07/04 11:13:05;;;;;;;9.10;2.03;;;;;;;17.55;100.00;101528.75;4972873;28;21135;-74
2023/07/04 11:15:36;;;;;;;4.00;1.43;;;;;;;16.97;100.00;101446.06;4979277;28;20453;-74
2023/07/04 11:18:01;;;;;;;5.37;1.53;;;;;;;16.50;100.00;101489.84;4969846;28;20456;-72
2023/07/04 11:20:51;;;;;;;7.60;1.40;;;;;;;15.53;100.00;101620.91;4985766;28;21080;-71
2023/07/04 11:23:20;;;;;;;2.63;1.20;;;;;;;14.65;100.00;101765.16;4972095;28;20443;-71